createdAt,value
2022-08-15T00:00:28.007Z,0.00
2022-08-15T00:01:28.045Z,0.00
2022-08-15T00:02:34.258Z,0.00
2022-08-15T00:04:00.941Z,0.00
2022-08-15T00:04:33.352Z,0.00
2022-08-15T00:05:28.954Z,0.00
2022-08-15T00:06:38.926Z,0.00
2022-08-15T00:07:45.722Z,0.00
2022-08-15T00:08:51.016Z,0.00
2022-08-15T00:09:54.818Z,0.00
2022-08-15T00:10:59.750Z,0.00
2022-08-15T00:11:28.892Z,0.00
2022-08-15T00:12:36.403Z,0.00
2022-08-15T00:13:30.608Z,0.00
2022-08-15T00:14:31.226Z,0.00
2022-08-15T00:15:34.587Z,0.00
2022-08-15T00:16:28.835Z,0.00
2022-08-15T00:17:46.113Z,0.00
2022-08-15T00:18:28.815Z,0.00
2022-08-15T00:19:27.816Z,0.00
2022-08-15T00:20:33.355Z,0.00
2022-08-15T00:21:28.780Z,0.00
2022-08-15T00:22:34.346Z,0.00
2022-08-15T00:23:30.663Z,0.00
2022-08-15T00:24:29.638Z,0.00
2022-08-15T00:25:27.957Z,0.00
2022-08-15T00:26:54.420Z,0.00
2022-08-15T00:27:28.715Z,0.00
2022-08-15T00:28:35.843Z,0.00
2022-08-15T00:29:38.024Z,0.00
2022-08-15T00:30:28.689Z,0.00
2022-08-15T00:31:41.883Z,0.00
2022-08-15T00:32:49.740Z,0.00
2022-08-15T00:33:29.888Z,0.00
2022-08-15T00:34:39.729Z,0.00
2022-08-15T00:35:29.280Z,0.00
2022-08-15T00:36:53.118Z,0.00
2022-08-15T00:37:28.608Z,0.00
2022-08-15T00:38:28.315Z,0.00
2022-08-15T00:39:32.805Z,0.00
2022-08-15T00:40:32.277Z,0.00
2022-08-15T00:41:27.566Z,0.00
2022-08-15T00:42:30.286Z,0.00
2022-08-15T00:43:30.779Z,0.00
2022-08-15T00:44:53.215Z,0.00
2022-08-15T00:45:34.235Z,0.00
2022-08-15T00:46:28.513Z,0.00
2022-08-15T00:47:31.369Z,0.00
2022-08-15T00:48:27.504Z,0.00
2022-08-15T00:49:27.481Z,0.00
2022-08-15T00:50:34.120Z,0.00
2022-08-15T00:51:30.464Z,0.00
2022-08-15T00:52:30.585Z,0.00
2022-08-15T00:53:30.452Z,0.00
2022-08-15T00:54:56.582Z,0.00
2022-08-15T00:55:28.417Z,0.00
2022-08-15T00:56:28.750Z,0.00
2022-08-15T00:57:57.076Z,0.00
2022-08-15T00:58:34.803Z,0.00
2022-08-15T00:59:28.374Z,0.00
2022-08-15T01:00:34.008Z,0.00
2022-08-15T01:01:28.386Z,0.00
2022-08-15T01:02:35.531Z,0.00
2022-08-15T01:03:28.343Z,0.00
2022-08-15T01:04:33.915Z,0.00
2022-08-15T01:05:28.311Z,0.00
2022-08-15T01:06:28.109Z,0.00
2022-08-15T01:07:27.292Z,0.00
2022-08-15T01:08:30.387Z,0.00
2022-08-15T01:09:28.269Z,0.00
2022-08-15T01:10:27.262Z,0.00
2022-08-15T01:11:33.370Z,0.00
2022-08-15T01:12:28.238Z,0.00
2022-08-15T01:14:04.212Z,0.00
2022-08-15T01:14:55.807Z,0.00
2022-08-15T01:15:42.373Z,0.00
2022-08-15T01:16:32.802Z,0.00
2022-08-15T01:17:28.249Z,0.00
2022-08-15T01:18:34.899Z,0.00
2022-08-15T01:19:29.628Z,0.00
2022-08-15T01:20:27.161Z,0.00
2022-08-15T01:21:28.934Z,0.00
2022-08-15T01:22:27.146Z,0.00
2022-08-15T01:23:52.698Z,0.00
2022-08-15T01:24:28.113Z,0.00
2022-08-15T01:26:39.055Z,0.00
2022-08-15T01:26:42.098Z,0.00
2022-08-15T01:27:28.097Z,0.00
2022-08-15T01:28:30.994Z,0.00
2022-08-15T01:29:27.061Z,0.00
2022-08-15T01:31:01.753Z,0.00
2022-08-15T01:31:28.037Z,0.00
2022-08-15T01:32:27.046Z,0.00
2022-08-15T01:33:27.017Z,0.00
2022-08-15T01:34:27.008Z,0.00
2022-08-15T01:35:26.998Z,0.00
2022-08-15T01:36:32.672Z,0.00
2022-08-15T01:37:27.985Z,0.00
2022-08-15T01:38:38.481Z,0.00
2022-08-15T01:39:28.023Z,0.00
2022-08-15T01:40:51.805Z,0.00
2022-08-15T01:41:36.032Z,0.00
2022-08-15T01:42:27.922Z,0.00
2022-08-15T01:43:28.080Z,0.00
2022-08-15T01:44:33.621Z,0.00
2022-08-15T01:45:27.893Z,0.00
2022-08-15T01:46:26.882Z,0.00
2022-08-15T01:47:27.213Z,0.00
2022-08-15T01:48:27.063Z,0.00
2022-08-15T01:49:26.849Z,0.00
2022-08-15T01:50:31.119Z,0.00
2022-08-15T01:51:26.828Z,0.00
2022-08-15T01:52:59.186Z,0.00
2022-08-15T01:53:29.820Z,0.00
2022-08-15T01:55:03.062Z,0.00
2022-08-15T01:55:32.365Z,0.00
2022-08-15T01:56:35.698Z,0.00
2022-08-15T01:57:27.782Z,0.00
2022-08-15T01:58:26.755Z,0.00
2022-08-15T01:59:26.746Z,0.00
2022-08-15T02:00:27.739Z,0.00
2022-08-15T02:01:35.210Z,0.00
2022-08-15T02:02:39.844Z,0.00
2022-08-15T02:03:27.702Z,0.00
2022-08-15T02:04:26.693Z,0.00
2022-08-15T02:05:26.685Z,0.00
2022-08-15T02:06:35.393Z,0.00
2022-08-15T02:07:27.677Z,0.00
2022-08-15T02:08:35.034Z,0.00
2022-08-15T02:09:38.821Z,0.00
2022-08-15T02:10:28.030Z,0.00
2022-08-15T02:11:26.620Z,0.00
2022-08-15T02:13:02.777Z,0.00
2022-08-15T02:13:27.601Z,0.00
2022-08-15T02:14:38.950Z,0.00
2022-08-15T02:15:27.578Z,0.00
2022-08-15T02:16:26.571Z,0.00
2022-08-15T02:17:31.763Z,0.00
2022-08-15T02:18:27.557Z,0.00
2022-08-15T02:19:26.534Z,0.00
2022-08-15T02:20:27.307Z,0.00
2022-08-15T02:21:36.936Z,0.00
2022-08-15T02:22:28.196Z,0.00
2022-08-15T02:23:26.493Z,0.00
2022-08-15T02:24:27.041Z,0.00
2022-08-15T02:25:26.470Z,0.00
2022-08-15T02:26:26.547Z,0.00
2022-08-15T02:27:26.461Z,0.00
2022-08-15T02:28:36.225Z,0.00
2022-08-15T02:29:27.429Z,0.00
2022-08-15T02:30:31.523Z,0.00
2022-08-15T02:31:27.408Z,0.00
2022-08-15T02:32:31.090Z,0.00
2022-08-15T02:33:26.388Z,0.00
2022-08-15T02:34:44.892Z,0.00
2022-08-15T02:35:28.869Z,0.00
2022-08-15T02:36:31.243Z,0.00
2022-08-15T02:37:27.357Z,0.00
2022-08-15T02:38:26.336Z,0.00
2022-08-15T02:39:27.350Z,0.00
2022-08-15T02:40:44.860Z,0.00
2022-08-15T02:41:27.302Z,0.00
2022-08-15T02:42:27.306Z,0.00
2022-08-15T02:43:26.282Z,0.00
2022-08-15T02:44:26.274Z,0.00
2022-08-15T02:45:26.261Z,0.00
2022-08-15T02:46:28.677Z,0.00
2022-08-15T02:47:26.249Z,0.00
2022-08-15T02:48:26.937Z,0.00
2022-08-15T02:49:26.221Z,0.00
2022-08-15T02:50:27.209Z,0.00
2022-08-15T02:51:26.199Z,0.00
2022-08-15T02:52:26.203Z,0.00
2022-08-15T02:53:26.835Z,0.00
2022-08-15T02:54:36.622Z,0.00
2022-08-15T02:55:30.839Z,0.00
2022-08-15T02:56:30.837Z,0.00
2022-08-15T02:57:27.145Z,0.00
2022-08-15T02:58:30.063Z,0.00
2022-08-15T02:59:27.117Z,0.00
2022-08-15T03:00:27.613Z,0.00
2022-08-15T03:01:26.150Z,0.00
2022-08-15T03:02:29.181Z,0.00
2022-08-15T03:03:26.075Z,0.00
2022-08-15T03:04:27.708Z,0.00
2022-08-15T03:05:26.054Z,0.00
2022-08-15T03:06:31.383Z,0.00
2022-08-15T03:07:27.048Z,0.00
2022-08-15T03:08:26.023Z,0.00
2022-08-15T03:09:26.014Z,0.00
2022-08-15T03:10:29.841Z,0.00
2022-08-15T03:11:25.999Z,0.00
2022-08-15T03:12:30.712Z,0.00
2022-08-15T03:13:26.971Z,0.00
2022-08-15T03:14:34.179Z,0.00
2022-08-15T03:15:26.946Z,0.00
2022-08-15T03:16:25.949Z,0.00
2022-08-15T03:17:26.927Z,0.00
2022-08-15T03:18:31.599Z,4.00
2022-08-15T03:19:26.908Z,4.00
2022-08-15T03:20:31.044Z,0.00
2022-08-15T03:21:26.907Z,0.00
2022-08-15T03:22:45.690Z,4.00
2022-08-15T03:23:41.055Z,4.00
2022-08-15T03:24:26.857Z,4.00
2022-08-15T03:25:29.592Z,4.00
2022-08-15T03:26:46.248Z,4.00
2022-08-15T03:27:26.820Z,8.00
2022-08-15T03:28:28.517Z,8.00
2022-08-15T03:29:34.105Z,8.00
2022-08-15T03:30:26.791Z,12.00
2022-08-15T03:31:25.799Z,12.00
2022-08-15T03:32:32.717Z,8.00
2022-08-15T03:33:54.893Z,12.00
2022-08-15T03:34:29.081Z,12.00
2022-08-15T03:35:27.403Z,16.00
2022-08-15T03:36:25.738Z,20.00
2022-08-15T03:37:25.717Z,20.00
2022-08-15T03:38:52.127Z,24.00
2022-08-15T03:39:26.758Z,28.00
2022-08-15T03:40:28.832Z,32.00
2022-08-15T03:41:25.684Z,32.00
2022-08-15T03:42:25.664Z,36.00
2022-08-15T03:43:26.680Z,40.00
2022-08-15T03:44:28.292Z,44.00
2022-08-15T03:45:26.634Z,48.00
2022-08-15T03:46:26.632Z,52.00
2022-08-15T03:47:25.607Z,60.00
2022-08-15T03:48:25.599Z,64.00
2022-08-15T03:50:23.448Z,68.00
2022-08-15T03:50:35.375Z,76.00
2022-08-15T03:51:26.578Z,80.00
2022-08-15T03:52:32.819Z,88.00
2022-08-15T03:53:28.613Z,96.00
2022-08-15T03:54:26.016Z,104.00
2022-08-15T03:55:25.524Z,112.00
2022-08-15T03:56:25.525Z,120.00
2022-08-15T03:57:25.506Z,124.00
2022-08-15T03:58:35.830Z,136.00
2022-08-15T03:59:26.481Z,148.00
2022-08-15T04:00:26.193Z,156.00
2022-08-15T04:01:29.623Z,168.00
2022-08-15T04:02:30.381Z,180.00
2022-08-15T04:03:25.439Z,192.00
2022-08-15T04:04:25.430Z,200.00
2022-08-15T04:05:25.418Z,216.00
2022-08-15T04:06:27.817Z,228.00
2022-08-15T04:07:25.440Z,244.00
2022-08-15T04:08:44.092Z,260.00
2022-08-15T04:09:29.976Z,272.00
2022-08-15T04:10:39.289Z,288.00
2022-08-15T04:11:35.694Z,300.00
2022-08-15T04:12:26.631Z,316.00
2022-08-15T04:13:25.334Z,332.00
2022-08-15T04:14:32.258Z,344.00
2022-08-15T04:15:26.310Z,360.00
2022-08-15T04:17:03.492Z,372.00
2022-08-15T04:17:56.901Z,384.00
2022-08-15T04:18:43.554Z,400.00
2022-08-15T04:19:26.269Z,412.00
2022-08-15T04:20:26.812Z,428.00
2022-08-15T04:21:26.249Z,444.00
2022-08-15T04:22:28.704Z,460.00
2022-08-15T04:23:26.224Z,480.00
2022-08-15T04:24:26.064Z,496.00
2022-08-15T04:25:25.206Z,516.00
2022-08-15T04:26:26.709Z,532.00
2022-08-15T04:27:25.250Z,548.00
2022-08-15T04:28:39.144Z,568.00
2022-08-15T04:29:26.160Z,608.00
2022-08-15T04:30:25.188Z,656.00
2022-08-15T04:31:25.147Z,716.00
2022-08-15T04:32:28.967Z,792.00
2022-08-15T04:34:22.453Z,764.00
2022-08-15T04:34:51.361Z,792.00
2022-08-15T04:35:26.095Z,872.00
2022-08-15T04:36:30.375Z,904.00
2022-08-15T04:37:26.089Z,928.00
2022-08-15T04:38:26.064Z,960.00
2022-08-15T04:39:25.082Z,992.00
2022-08-15T04:41:19.227Z,1004.00
2022-08-15T04:41:35.948Z,1036.00
2022-08-15T04:42:26.020Z,1060.00
2022-08-15T04:43:25.012Z,1088.00
2022-08-15T04:44:28.474Z,1116.00
2022-08-15T04:45:24.989Z,1144.00
2022-08-15T04:46:26.359Z,1172.00
2022-08-15T04:47:24.968Z,1188.00
2022-08-15T04:48:25.955Z,1248.00
2022-08-15T04:49:24.946Z,1276.00
2022-08-15T04:50:24.934Z,1304.00
2022-08-15T04:51:34.453Z,1336.00
2022-08-15T04:52:25.912Z,1356.00
2022-08-15T04:53:30.543Z,1380.00
2022-08-15T04:54:25.890Z,1400.00
2022-08-15T04:55:44.481Z,1412.00
2022-08-15T04:56:48.525Z,1476.00
2022-08-15T04:57:25.860Z,1576.00
2022-08-15T04:58:41.820Z,1628.00
2022-08-15T04:59:37.958Z,1648.00
2022-08-15T05:00:28.003Z,1620.00
2022-08-15T05:01:24.891Z,1620.00
2022-08-15T05:02:55.265Z,1660.00
2022-08-15T05:03:25.839Z,1664.00
2022-08-15T05:04:26.200Z,1672.00
2022-08-15T05:05:24.776Z,1688.00
2022-08-15T05:06:30.650Z,1724.00
2022-08-15T05:07:27.387Z,1724.00
2022-08-15T05:08:24.742Z,1744.00
2022-08-15T05:09:24.737Z,1764.00
2022-08-15T05:10:33.695Z,1780.00
2022-08-15T05:11:25.728Z,1792.00
2022-08-15T05:12:25.699Z,1812.00
2022-08-15T05:13:25.693Z,1812.00
2022-08-15T05:14:35.677Z,1828.00
2022-08-15T05:15:25.669Z,1812.00
2022-08-15T05:16:34.996Z,1876.00
2022-08-15T05:17:25.647Z,1912.00
2022-08-15T05:18:25.637Z,1968.00
2022-08-15T05:19:24.629Z,2088.00
2022-08-15T05:20:24.642Z,2172.00
2022-08-15T05:21:43.490Z,2152.00
2022-08-15T05:22:36.473Z,2124.00
2022-08-15T05:23:34.315Z,2168.00
2022-08-15T05:24:29.331Z,2320.00
2022-08-15T05:25:25.327Z,2248.00
2022-08-15T05:26:53.266Z,1772.00
2022-08-15T05:27:25.545Z,1616.00
2022-08-15T05:28:31.135Z,1624.00
2022-08-15T05:29:25.525Z,1736.00
2022-08-15T05:30:27.961Z,1976.00
2022-08-15T05:31:24.519Z,2368.00
2022-08-15T05:32:25.494Z,2736.00
2022-08-15T05:33:57.416Z,2748.00
2022-08-15T05:34:37.683Z,2588.00
2022-08-15T05:35:25.462Z,2568.00
2022-08-15T05:36:27.262Z,2544.00
2022-08-15T05:37:24.440Z,2396.00
2022-08-15T05:38:31.299Z,2392.00
2022-08-15T05:39:25.466Z,2428.00
2022-08-15T05:40:25.431Z,2604.00
2022-08-15T05:41:25.935Z,2880.00
2022-08-15T05:42:31.749Z,2988.00
2022-08-15T05:43:25.377Z,3248.00
2022-08-15T05:44:39.298Z,3428.00
2022-08-15T05:45:31.251Z,3308.00
2022-08-15T05:46:26.758Z,3048.00
2022-08-15T05:47:24.336Z,2828.00
2022-08-15T05:48:24.858Z,2604.00
2022-08-15T05:49:25.327Z,2476.00
2022-08-15T05:50:25.485Z,2516.00
2022-08-15T05:51:24.305Z,2576.00
2022-08-15T05:52:24.281Z,2568.00
2022-08-15T05:53:25.271Z,2604.00
2022-08-15T05:54:25.882Z,2612.00
2022-08-15T05:55:24.244Z,2576.00
2022-08-15T05:56:24.249Z,2520.00
2022-08-15T05:57:24.224Z,2416.00
2022-08-15T05:58:42.948Z,2304.00
2022-08-15T05:59:25.202Z,2248.00
2022-08-15T06:00:24.190Z,2256.00
2022-08-15T06:01:24.255Z,2308.00
2022-08-15T06:02:36.793Z,2420.00
2022-08-15T06:03:25.164Z,2628.00
2022-08-15T06:04:30.013Z,2716.00
2022-08-15T06:05:33.451Z,2632.00
2022-08-15T06:06:25.355Z,2548.00
2022-08-15T06:07:24.118Z,2464.00
2022-08-15T06:08:48.958Z,2424.00
2022-08-15T06:09:25.098Z,2404.00
2022-08-15T06:10:35.698Z,2432.00
2022-08-15T06:11:25.076Z,2520.00
2022-08-15T06:12:26.049Z,2668.00
2022-08-15T06:13:24.054Z,2924.00
2022-08-15T06:14:35.530Z,3264.00
2022-08-15T06:15:25.086Z,3544.00
2022-08-15T06:16:46.348Z,3712.00
2022-08-15T06:17:25.208Z,4368.00
2022-08-15T06:18:24.024Z,4668.00
2022-08-15T06:19:24.087Z,5060.00
2022-08-15T06:20:35.973Z,5056.00
2022-08-15T06:21:24.970Z,4956.00
2022-08-15T06:22:26.076Z,5012.00
2022-08-15T06:23:37.261Z,4832.00
2022-08-15T06:24:26.549Z,4784.00
2022-08-15T06:25:23.968Z,4776.00
2022-08-15T06:26:23.958Z,4840.00
2022-08-15T06:27:40.400Z,4848.00
2022-08-15T06:28:51.849Z,4548.00
2022-08-15T06:29:24.886Z,3720.00
2022-08-15T06:30:23.886Z,4028.00
2022-08-15T06:31:23.863Z,5312.00
2022-08-15T06:32:24.523Z,5456.00
2022-08-15T06:33:24.871Z,5484.00
2022-08-15T06:34:46.956Z,5552.00
2022-08-15T06:35:26.420Z,5764.00
2022-08-15T06:36:23.938Z,6124.00
2022-08-15T06:37:24.207Z,11076.00
2022-08-15T06:38:31.239Z,7288.00
2022-08-15T06:39:24.820Z,6180.00
2022-08-15T06:40:27.947Z,6136.00
2022-08-15T06:41:25.249Z,7996.00
2022-08-15T06:42:23.745Z,6768.00
2022-08-15T06:43:24.732Z,6140.00
2022-08-15T06:44:30.518Z,5860.00
2022-08-15T06:45:24.721Z,6052.00
2022-08-15T06:46:45.788Z,6140.00
2022-08-15T06:47:24.690Z,5900.00
2022-08-15T06:48:33.300Z,5884.00
2022-08-15T06:49:24.666Z,6892.00
2022-08-15T06:50:23.672Z,6852.00
2022-08-15T06:51:23.656Z,6488.00
2022-08-15T06:52:25.691Z,6456.00
2022-08-15T06:53:23.628Z,6148.00
2022-08-15T06:54:35.992Z,5876.00
2022-08-15T06:55:24.618Z,6176.00
2022-08-15T06:56:29.216Z,6592.00
2022-08-15T06:57:24.580Z,6660.00
2022-08-15T06:58:54.510Z,8564.00
2022-08-15T06:59:35.870Z,4704.00
2022-08-15T07:00:35.693Z,7084.00
2022-08-15T07:01:24.608Z,5440.00
2022-08-15T07:02:40.039Z,10992.00
2022-08-15T07:03:25.805Z,11236.00
2022-08-15T07:04:23.505Z,11220.00
2022-08-15T07:05:29.278Z,4780.00
2022-08-15T07:06:24.480Z,11184.00
2022-08-15T07:07:23.476Z,11368.00
2022-08-15T07:08:23.461Z,11380.00
2022-08-15T07:09:24.456Z,11852.00
2022-08-15T07:10:23.455Z,12408.00
2022-08-15T07:11:23.429Z,12732.00
2022-08-15T07:12:36.511Z,12356.00
2022-08-15T07:13:24.412Z,12288.00
2022-08-15T07:14:23.400Z,12264.00
2022-08-15T07:15:23.406Z,12212.00
2022-08-15T07:16:23.376Z,12268.00
2022-08-15T07:17:24.611Z,11992.00
2022-08-15T07:18:30.905Z,11696.00
2022-08-15T07:19:24.346Z,11416.00
2022-08-15T07:20:39.932Z,11404.00
2022-08-15T07:21:24.327Z,11344.00
2022-08-15T07:22:35.364Z,11240.00
2022-08-15T07:23:24.313Z,11352.00
2022-08-15T07:24:35.614Z,12900.00
2022-08-15T07:25:24.296Z,14912.00
2022-08-15T07:26:23.453Z,16320.00
2022-08-15T07:27:23.264Z,17248.00
2022-08-15T07:28:23.253Z,17216.00
2022-08-15T07:29:24.244Z,17600.00
2022-08-15T07:30:31.250Z,18368.00
2022-08-15T07:31:26.293Z,19904.00
2022-08-15T07:32:33.285Z,22144.00
2022-08-15T07:33:24.201Z,22816.00
2022-08-15T07:34:23.212Z,23392.00
2022-08-15T07:35:23.408Z,22336.00
2022-08-15T07:36:30.424Z,21184.00
2022-08-15T07:37:24.163Z,20768.00
2022-08-15T07:38:28.096Z,21152.00
2022-08-15T07:39:34.283Z,21600.00
2022-08-15T07:40:28.750Z,22656.00
2022-08-15T07:41:24.135Z,23104.00
2022-08-15T07:42:32.290Z,23456.00
2022-08-15T07:43:24.103Z,23552.00
2022-08-15T07:44:23.107Z,23520.00
2022-08-15T07:45:25.019Z,23552.00
2022-08-15T07:46:24.512Z,24064.00
2022-08-15T07:47:23.062Z,24096.00
2022-08-15T07:48:24.570Z,25024.00
2022-08-15T07:49:23.057Z,25536.00
2022-08-15T07:50:28.565Z,25216.00
2022-08-15T07:51:24.022Z,24416.00
2022-08-15T07:53:24.002Z,25536.00
2022-08-15T07:54:34.849Z,25472.00
2022-08-15T07:56:39.060Z,25664.00
2022-08-15T07:57:51.319Z,26656.00
2022-08-15T07:58:28.351Z,27424.00
2022-08-15T07:59:24.258Z,27552.00
2022-08-15T08:00:44.897Z,27072.00
2022-08-15T08:01:33.741Z,27328.00
2022-08-15T08:02:30.146Z,28896.00
2022-08-15T08:03:23.995Z,28672.00
2022-08-15T08:06:33.440Z,28288.00
2022-08-15T08:07:34.465Z,27648.00
2022-08-15T08:08:45.378Z,28320.00
2022-08-15T08:09:24.026Z,30240.00
2022-08-15T08:10:23.889Z,31904.00
2022-08-15T08:11:23.528Z,32672.00
2022-08-15T08:12:30.518Z,32768.00
2022-08-15T08:13:27.515Z,32096.00
2022-08-15T08:14:39.724Z,32704.00
2022-08-15T08:15:42.913Z,33760.00
2022-08-15T08:16:30.932Z,33984.00
2022-08-15T08:17:23.770Z,34304.00
2022-08-15T08:18:26.064Z,16984.00
2022-08-15T08:19:24.158Z,33568.00
2022-08-15T08:20:22.742Z,34976.00
2022-08-15T08:21:29.660Z,12996.00
2022-08-15T08:22:23.736Z,8588.00
2022-08-15T08:23:27.578Z,28000.00
2022-08-15T08:24:24.605Z,36160.00
2022-08-15T08:25:41.747Z,35264.00
2022-08-15T08:26:23.681Z,37120.00
2022-08-15T08:27:22.672Z,36768.00
2022-08-15T08:28:23.281Z,35744.00
2022-08-15T08:29:22.710Z,35648.00
2022-08-15T08:30:43.787Z,24800.00
2022-08-15T08:31:23.632Z,31200.00
2022-08-15T08:32:29.830Z,33344.00
2022-08-15T08:33:23.611Z,34080.00
2022-08-15T08:34:48.265Z,33472.00
2022-08-15T08:35:23.595Z,32864.00
2022-08-15T08:36:36.260Z,33056.00
2022-08-15T08:37:23.575Z,35200.00
2022-08-15T08:38:58.419Z,34496.00
2022-08-15T08:39:23.605Z,33824.00
2022-08-15T08:40:24.137Z,33504.00
2022-08-15T08:41:22.550Z,10280.00
2022-08-15T08:42:22.526Z,27200.00
2022-08-15T08:43:22.518Z,33760.00
2022-08-15T08:44:23.145Z,36736.00
2022-08-15T08:45:22.674Z,34688.00
2022-08-15T08:46:29.177Z,32928.00
2022-08-15T08:47:23.478Z,35744.00
2022-08-15T08:48:25.659Z,34720.00
2022-08-15T08:49:22.479Z,34464.00
2022-08-15T08:50:33.470Z,35584.00
2022-08-15T08:51:23.438Z,36544.00
2022-08-15T08:52:27.106Z,37088.00
2022-08-15T08:53:30.188Z,7880.00
2022-08-15T08:54:28.801Z,36576.00
2022-08-15T08:55:23.402Z,21792.00
2022-08-15T08:56:31.628Z,10516.00
2022-08-15T08:57:23.381Z,30336.00
2022-08-15T08:58:34.540Z,37632.00
2022-08-15T08:59:25.605Z,39360.00
2022-08-15T09:00:29.536Z,26720.00
2022-08-15T09:01:24.584Z,38848.00
2022-08-15T09:02:29.080Z,40800.00
2022-08-15T09:03:23.324Z,35040.00
2022-08-15T09:04:22.330Z,8268.00
2022-08-15T09:05:22.307Z,34912.00
2022-08-15T09:06:26.596Z,42368.00
2022-08-15T09:07:23.288Z,7476.00
2022-08-15T09:08:29.170Z,7160.00
2022-08-15T09:09:23.835Z,35296.00
2022-08-15T09:10:27.113Z,41408.00
2022-08-15T09:11:24.027Z,40096.00
2022-08-15T09:12:22.253Z,15824.00
2022-08-15T09:13:23.229Z,15064.00
2022-08-15T09:14:33.236Z,26784.00
2022-08-15T09:15:23.209Z,41504.00
2022-08-15T09:16:24.662Z,45312.00
2022-08-15T09:17:31.108Z,45056.00
2022-08-15T09:18:23.182Z,42496.00
2022-08-15T09:19:22.187Z,11824.00
2022-08-15T09:20:22.239Z,6724.00
2022-08-15T09:21:23.153Z,7720.00
2022-08-15T09:22:22.144Z,8068.00
2022-08-15T09:23:32.711Z,9588.00
2022-08-15T09:25:06.749Z,46080.00
2022-08-15T09:25:30.054Z,45568.00
2022-08-15T09:26:23.101Z,45888.00
2022-08-15T09:27:22.093Z,44768.00
2022-08-15T09:28:30.130Z,44928.00
2022-08-15T09:29:23.084Z,36448.00
2022-08-15T09:30:45.694Z,8228.00
2022-08-15T09:31:23.555Z,8160.00
2022-08-15T09:32:30.624Z,21888.00
2022-08-15T09:33:23.047Z,11180.00
2022-08-15T09:34:31.045Z,41920.00
2022-08-15T09:35:23.368Z,44960.00
2022-08-15T09:36:27.310Z,46688.00
2022-08-15T09:37:23.010Z,44384.00
2022-08-15T09:38:26.775Z,46944.00
2022-08-15T09:39:23.028Z,48672.00
2022-08-15T09:40:58.364Z,48640.00
2022-08-15T09:41:24.565Z,47840.00
2022-08-15T09:42:35.013Z,30944.00
2022-08-15T09:43:22.968Z,12976.00
2022-08-15T09:44:37.082Z,9492.00
2022-08-15T09:45:44.277Z,8196.00
2022-08-15T09:46:41.981Z,25408.00
2022-08-15T09:47:27.023Z,7980.00
2022-08-15T09:48:22.886Z,7576.00
2022-08-15T09:49:22.885Z,7772.00
2022-08-15T09:50:33.469Z,8488.00
2022-08-15T09:51:22.857Z,52960.00
2022-08-15T09:52:34.668Z,52288.00
2022-08-15T09:53:22.879Z,25696.00
2022-08-15T09:54:24.769Z,48928.00
2022-08-15T09:55:22.819Z,8588.00
2022-08-15T09:56:27.516Z,45056.00
2022-08-15T09:57:22.797Z,47360.00
2022-08-15T09:58:21.789Z,49184.00
2022-08-15T09:59:21.794Z,49984.00
2022-08-15T10:00:21.777Z,47552.00
2022-08-15T10:01:24.602Z,45792.00
2022-08-15T10:02:36.185Z,47584.00
2022-08-15T10:03:22.745Z,51456.00
2022-08-15T10:04:28.651Z,50848.00
2022-08-15T10:05:22.720Z,52928.00
2022-08-15T10:06:32.548Z,53248.00
2022-08-15T10:07:22.698Z,54912.00
2022-08-15T10:08:29.754Z,53504.00
2022-08-15T10:09:23.458Z,51936.00
2022-08-15T10:10:21.675Z,53984.00
2022-08-15T10:11:21.660Z,57056.00
2022-08-15T10:12:21.712Z,56896.00
2022-08-15T10:13:21.643Z,55040.00
2022-08-15T10:14:21.649Z,52544.00
2022-08-15T10:15:21.624Z,51392.00
2022-08-15T10:16:21.616Z,53088.00
2022-08-15T10:17:21.639Z,56704.00
2022-08-15T10:18:22.594Z,57632.00
2022-08-15T10:19:21.612Z,55136.00
2022-08-15T10:20:21.576Z,22848.00
2022-08-15T10:21:21.927Z,17728.00
2022-08-15T10:22:21.557Z,53184.00
2022-08-15T10:23:21.546Z,50944.00
2022-08-15T10:24:28.540Z,50880.00
2022-08-15T10:25:23.468Z,48832.00
2022-08-15T10:26:34.303Z,43136.00
2022-08-15T10:27:22.507Z,46624.00
2022-08-15T10:28:37.451Z,5924.00
2022-08-15T10:29:22.502Z,5660.00
2022-08-15T10:30:46.236Z,6612.00
2022-08-15T10:31:51.719Z,6972.00
2022-08-15T10:32:36.696Z,8008.00
2022-08-15T10:33:23.658Z,10080.00
2022-08-15T10:34:21.463Z,8940.00
2022-08-15T10:35:21.432Z,8468.00
2022-08-15T10:36:32.663Z,8012.00
2022-08-15T10:37:24.703Z,7464.00
2022-08-15T10:38:31.569Z,5900.00
2022-08-15T10:39:22.550Z,4104.00
2022-08-15T10:40:22.987Z,3784.00
2022-08-15T10:41:22.369Z,3728.00
2022-08-15T10:42:22.886Z,3604.00
2022-08-15T10:43:21.352Z,3620.00
2022-08-15T10:44:34.679Z,3808.00
2022-08-15T10:45:22.330Z,4048.00
2022-08-15T10:46:22.045Z,4380.00
2022-08-15T10:47:21.310Z,4852.00
2022-08-15T10:48:45.260Z,5352.00
2022-08-15T10:49:25.798Z,5988.00
2022-08-15T10:50:23.762Z,6660.00
2022-08-15T10:51:21.272Z,7072.00
2022-08-15T10:52:21.264Z,7764.00
2022-08-15T10:53:21.253Z,8540.00
2022-08-15T10:54:21.305Z,9116.00
2022-08-15T10:55:55.807Z,8888.00
2022-08-15T10:56:59.805Z,8480.00
2022-08-15T10:57:22.208Z,7936.00
2022-08-15T10:58:21.199Z,6720.00
2022-08-15T10:59:22.697Z,6112.00
2022-08-15T11:00:37.453Z,5728.00
2022-08-15T11:01:22.957Z,5520.00
2022-08-15T11:02:36.928Z,5488.00
2022-08-15T11:03:22.146Z,5548.00
2022-08-15T11:04:57.652Z,5764.00
2022-08-15T11:05:22.128Z,5968.00
2022-08-15T11:06:23.662Z,6328.00
2022-08-15T11:07:22.120Z,7080.00
2022-08-15T11:08:21.104Z,8164.00
2022-08-15T11:09:21.134Z,8168.00
2022-08-15T11:10:24.271Z,8224.00
2022-08-15T11:11:21.066Z,8860.00
2022-08-15T11:12:21.055Z,8416.00
2022-08-15T11:13:22.060Z,8076.00
2022-08-15T11:14:29.150Z,7884.00
2022-08-15T11:15:23.141Z,7804.00
2022-08-15T11:16:32.819Z,7688.00
2022-08-15T11:17:22.812Z,7428.00
2022-08-15T11:18:23.829Z,7292.00
2022-08-15T11:20:09.511Z,7236.00
2022-08-15T11:20:23.951Z,6784.00
2022-08-15T11:21:20.997Z,5632.00
2022-08-15T11:22:20.949Z,5152.00
2022-08-15T11:23:20.966Z,4968.00
2022-08-15T11:24:20.932Z,4856.00
2022-08-15T11:25:21.017Z,4692.00
2022-08-15T11:26:27.298Z,4716.00
2022-08-15T11:27:23.811Z,5164.00
2022-08-15T11:28:36.685Z,5348.00
2022-08-15T11:29:21.876Z,5080.00
2022-08-15T11:30:22.246Z,5152.00
2022-08-15T11:31:20.861Z,5132.00
2022-08-15T11:32:25.374Z,5120.00
2022-08-15T11:33:26.359Z,5252.00
2022-08-15T11:34:23.648Z,5912.00
2022-08-15T11:35:21.812Z,5832.00
2022-08-15T11:36:20.804Z,5648.00
2022-08-15T11:37:20.801Z,6208.00
2022-08-15T11:38:21.048Z,6300.00
2022-08-15T11:39:24.342Z,6376.00
2022-08-15T11:40:20.806Z,6728.00
2022-08-15T11:41:20.767Z,6880.00
2022-08-15T11:42:20.741Z,6836.00
2022-08-15T11:43:20.745Z,6464.00
2022-08-15T11:44:23.393Z,6164.00
2022-08-15T11:45:20.707Z,6172.00
2022-08-15T11:46:30.749Z,5772.00
2022-08-15T11:47:21.691Z,5884.00
2022-08-15T11:48:20.732Z,5288.00
2022-08-15T11:49:20.668Z,5216.00
2022-08-15T11:50:20.658Z,4900.00
2022-08-15T11:51:20.646Z,4720.00
2022-08-15T11:52:40.278Z,4652.00
2022-08-15T11:53:21.638Z,4868.00
2022-08-15T11:54:34.147Z,5004.00
2022-08-15T11:55:24.528Z,4948.00
2022-08-15T11:56:25.964Z,4812.00
2022-08-15T11:57:43.210Z,4748.00
2022-08-15T11:58:21.586Z,4968.00
2022-08-15T11:59:21.565Z,4608.00
2022-08-15T12:00:21.332Z,5496.00
2022-08-15T12:01:21.540Z,5448.00
2022-08-15T12:02:32.083Z,4820.00
2022-08-15T12:04:39.942Z,4244.00
2022-08-15T12:05:40.299Z,4472.00
2022-08-15T12:05:42.642Z,4224.00
2022-08-15T12:07:21.479Z,4240.00
2022-08-15T12:09:42.639Z,2888.00
2022-08-15T12:10:30.297Z,2492.00
2022-08-15T12:11:21.436Z,2244.00
2022-08-15T12:12:20.431Z,2080.00
2022-08-15T12:13:14.965Z,3616.00
2022-08-15T12:13:24.769Z,4508.00
2022-08-15T12:13:32.248Z,2012.00
2022-08-15T12:14:23.859Z,1952.00
2022-08-15T12:15:20.397Z,1904.00
2022-08-15T12:16:26.732Z,1860.00
2022-08-15T12:17:21.374Z,1852.00
2022-08-15T12:18:32.626Z,1828.00
2022-08-15T12:19:25.176Z,1832.00
2022-08-15T12:20:26.890Z,1840.00
2022-08-15T12:21:21.334Z,1876.00
2022-08-15T12:22:52.870Z,1980.00
2022-08-15T12:23:21.474Z,2144.00
2022-08-15T12:24:20.303Z,2336.00
2022-08-15T12:25:38.005Z,2536.00
2022-08-15T12:26:37.951Z,2868.00